Legend — WDF9316 — position and weather

sailwx.info

Track history (hours):
 
Tides and Currents Weather Stations Pressure Air Temp Water Temp Dewpoint Dewpoint Depression Visibility Wind Speed Wind Dir Waves Ship Positions

Legend

Owner: Crowley Maritime, Seattle, WA. More information available from US FCC via Universal Licensing System and Coast Guard Vessel Documentation Center.

Last reported at 2017-Feb-25 09:14 UTC. Time now 2017-Feb-27 14:25 UTC.
Position N 24°54' W 080°20'.

Length 212 m; draft 7.8 m.

Type: Towing. MMSI: 366709000.

Date/timePositionNaut miles runAvg speedWind from/ knotsBaromVisibWave heightAir tempDewpointWater temp
2017-Feb-25 09:14N 24°54' W 080°20'811.1
2017-Feb-25 08:33N 24°59' W 080°14'1010.4
2017-Feb-25 07:33N 25°08' W 080°08'1010.1
2017-Feb-25 06:33N 25°17' W 080°04'9 9.4
2017-Feb-25 05:33N 25°26' W 080°01'10 9.5
2017-Feb-25 04:33N 25°36' W 080°01'9 9.5
2017-Feb-25 03:33N 25°45' W 080°01'1211.8
2017-Feb-25 02:33N 25°57' W 080°01'10 9.9
2017-Feb-25 01:33N 26°06' W 080°07'1 0.6
2017-Feb-25 00:22N 26°06' W 080°07'0 0.0
2017-Feb-24 23:25N 26°06' W 080°07'0 0.0
2017-Feb-24 22:25N 26°06' W 080°07'0 0.0
2017-Feb-24 21:25N 26°06' W 080°07'0 0.0
2017-Feb-24 20:28N 26°06' W 080°07'0 0.0
2017-Feb-24 19:28N 26°06' W 080°07'0 0.0
2017-Feb-24 18:28N 26°06' W 080°07'0 0.0
2017-Feb-24 17:31N 26°06' W 080°07'0 0.0
2017-Feb-24 16:31N 26°06' W 080°07'0 0.0
2017-Feb-24 15:31N 26°06' W 080°07'0 0.0
2017-Feb-24 14:28N 26°06' W 080°07'0 0.0
2017-Feb-24 13:31N 26°06' W 080°07'0 0.0
2017-Feb-24 12:31N 26°06' W 080°07'0 0.0
2017-Feb-24 11:22N 26°06' W 080°07'0 0.0
2017-Feb-24 10:31N 26°06' W 080°07'0 0.0
2017-Feb-24 09:25N 26°06' W 080°07'0 0.0
2017-Feb-24 08:25N 26°06' W 080°07'0 0.0
2017-Feb-24 07:25N 26°06' W 080°07'0 0.0
2017-Feb-24 06:28N 26°06' W 080°07'0 0.0
2017-Feb-24 05:28N 26°06' W 080°07'0 0.0
2017-Feb-24 04:28N 26°06' W 080°07'0 0.0
2017-Feb-24 03:31N 26°06' W 080°07'0 0.0
2017-Feb-24 02:31N 26°06' W 080°07'0 0.0
2017-Feb-24 01:31N 26°06' W 080°07'0 0.0
2017-Feb-24 00:31N 26°06' W 080°07'0 0.0
2017-Feb-23 23:31N 26°06' W 080°07'0 0.0
2017-Feb-23 22:31N 26°06' W 080°07'2 2.1
2017-Feb-23 21:33N 26°06' W 080°05'1111.5
2017-Feb-23 20:33N 25°55' W 079°59'1515.1
2017-Feb-23 19:34N 25°40' W 079°57'1616.3
2017-Feb-23 18:33N 25°24' W 079°58'  
Track history (hours):
 
Tides and Currents Weather Stations Pressure Air Temp Water Temp Dewpoint Dewpoint Depression Visibility Wind Speed Wind Dir Waves Ship Positions

Legend

Owner: Crowley Maritime, Seattle, WA. More information available from US FCC via Universal Licensing System and Coast Guard Vessel Documentation Center.

Last reported at 2017-Feb-25 09:14 UTC. Time now 2017-Feb-27 14:25 UTC.
Position N 24°54' W 080°20'.

Length 212 m; draft 7.8 m.

Type: Towing. MMSI: 366709000.

Date/timePositionNaut miles runAvg speedWind from/ knotsBaromVisibWave heightAir tempDewpointWater temp
2017-Feb-25 09:14N 24°54' W 080°20'811.1
2017-Feb-25 08:33N 24°59' W 080°14'1010.4
2017-Feb-25 07:33N 25°08' W 080°08'1010.1
2017-Feb-25 06:33N 25°17' W 080°04'9 9.4
2017-Feb-25 05:33N 25°26' W 080°01'10 9.5
2017-Feb-25 04:33N 25°36' W 080°01'9 9.5
2017-Feb-25 03:33N 25°45' W 080°01'1211.8
2017-Feb-25 02:33N 25°57' W 080°01'10 9.9
2017-Feb-25 01:33N 26°06' W 080°07'1 0.6
2017-Feb-25 00:22N 26°06' W 080°07'0 0.0
2017-Feb-24 23:25N 26°06' W 080°07'0 0.0
2017-Feb-24 22:25N 26°06' W 080°07'0 0.0
2017-Feb-24 21:25N 26°06' W 080°07'0 0.0
2017-Feb-24 20:28N 26°06' W 080°07'0 0.0
2017-Feb-24 19:28N 26°06' W 080°07'0 0.0
2017-Feb-24 18:28N 26°06' W 080°07'0 0.0
2017-Feb-24 17:31N 26°06' W 080°07'0 0.0
2017-Feb-24 16:31N 26°06' W 080°07'0 0.0
2017-Feb-24 15:31N 26°06' W 080°07'0 0.0
2017-Feb-24 14:28N 26°06' W 080°07'0 0.0
2017-Feb-24 13:31N 26°06' W 080°07'0 0.0
2017-Feb-24 12:31N 26°06' W 080°07'0 0.0
2017-Feb-24 11:22N 26°06' W 080°07'0 0.0
2017-Feb-24 10:31N 26°06' W 080°07'0 0.0
2017-Feb-24 09:25N 26°06' W 080°07'0 0.0
2017-Feb-24 08:25N 26°06' W 080°07'0 0.0
2017-Feb-24 07:25N 26°06' W 080°07'0 0.0
2017-Feb-24 06:28N 26°06' W 080°07'0 0.0
2017-Feb-24 05:28N 26°06' W 080°07'0 0.0
2017-Feb-24 04:28N 26°06' W 080°07'0 0.0
2017-Feb-24 03:31N 26°06' W 080°07'0 0.0
2017-Feb-24 02:31N 26°06' W 080°07'0 0.0
2017-Feb-24 01:31N 26°06' W 080°07'0 0.0
2017-Feb-24 00:31N 26°06' W 080°07'0 0.0
2017-Feb-23 23:31N 26°06' W 080°07'0 0.0
2017-Feb-23 22:31N 26°06' W 080°07'2 2.1
2017-Feb-23 21:33N 26°06' W 080°05'1111.5
2017-Feb-23 20:33N 25°55' W 079°59'1515.1
2017-Feb-23 19:34N 25°40' W 079°57'1616.3
2017-Feb-23 18:33N 25°24' W 079°58'  

Dump ship's entire track history